sensor_id;sensor_type;location;lat;lon;timestamp;P1;durP1;ratioP1;P2;durP2;ratioP2
24084;SDS011;12268;52.110;5.548;2022-09-16T00:00:35;5.85;;;1.60;;
24084;SDS011;12268;52.110;5.548;2022-09-16T00:03:01;4.18;;;1.48;;
24084;SDS011;12268;52.110;5.548;2022-09-16T00:05:27;7.68;;;1.70;;
24084;SDS011;12268;52.110;5.548;2022-09-16T00:07:53;5.78;;;1.38;;
24084;SDS011;12268;52.110;5.548;2022-09-16T00:10:19;5.07;;;1.65;;
24084;SDS011;12268;52.110;5.548;2022-09-16T00:12:46;3.20;;;1.55;;
24084;SDS011;12268;52.110;5.548;2022-09-16T00:15:12;4.13;;;1.67;;
24084;SDS011;12268;52.110;5.548;2022-09-16T00:17:37;5.30;;;1.80;;
24084;SDS011;12268;52.110;5.548;2022-09-16T00:20:04;4.45;;;1.83;;
24084;SDS011;12268;52.110;5.548;2022-09-16T00:22:30;6.43;;;1.73;;
24084;SDS011;12268;52.110;5.548;2022-09-16T00:24:56;4.32;;;1.60;;
24084;SDS011;12268;52.110;5.548;2022-09-16T00:27:21;6.85;;;1.90;;
24084;SDS011;12268;52.110;5.548;2022-09-16T00:29:47;6.65;;;1.75;;
24084;SDS011;12268;52.110;5.548;2022-09-16T00:32:12;4.53;;;1.27;;
24084;SDS011;12268;52.110;5.548;2022-09-16T00:34:38;3.50;;;1.50;;
24084;SDS011;12268;52.110;5.548;2022-09-16T00:37:04;2.55;;;1.50;;
24084;SDS011;12268;52.110;5.548;2022-09-16T00:39:32;5.07;;;1.60;;
24084;SDS011;12268;52.110;5.548;2022-09-16T00:41:58;4.95;;;1.60;;
24084;SDS011;12268;52.110;5.548;2022-09-16T00:47:18;10.30;;;1.70;;
24084;SDS011;12268;52.110;5.548;2022-09-16T00:50:44;5.80;;;1.50;;
24084;SDS011;12268;52.110;5.548;2022-09-16T00:53:08;5.78;;;1.70;;
24084;SDS011;12268;52.110;5.548;2022-09-16T00:55:41;6.57;;;1.73;;
24084;SDS011;12268;52.110;5.548;2022-09-16T00:58:13;7.72;;;1.80;;
24084;SDS011;12268;52.110;5.548;2022-09-16T01:00:47;5.32;;;1.60;;
24084;SDS011;12268;52.110;5.548;2022-09-16T01:03:13;7.68;;;1.63;;
24084;SDS011;12268;52.110;5.548;2022-09-16T01:05:38;3.90;;;1.80;;
24084;SDS011;12268;52.110;5.548;2022-09-16T01:08:04;4.65;;;1.88;;
24084;SDS011;12268;52.110;5.548;2022-09-16T01:10:30;8.75;;;1.92;;
24084;SDS011;12268;52.110;5.548;2022-09-16T01:12:56;2.97;;;1.98;;
24084;SDS011;12268;52.110;5.548;2022-09-16T01:15:45;5.93;;;1.95;;
24084;SDS011;12268;52.110;5.548;2022-09-16T01:18:30;6.40;;;1.98;;
24084;SDS011;12268;52.110;5.548;2022-09-16T01:21:15;6.40;;;1.52;;
24084;SDS011;12268;52.110;5.548;2022-09-16T01:24:06;6.70;;;1.90;;
24084;SDS011;12268;52.110;5.548;2022-09-16T01:32:28;4.85;;;1.70;;
24084;SDS011;12268;52.110;5.548;2022-09-16T01:40:27;6.18;;;2.15;;
24084;SDS011;12268;52.110;5.548;2022-09-16T01:43:28;5.43;;;1.90;;
24084;SDS011;12268;52.110;5.548;2022-09-16T01:52:22;3.70;;;1.98;;
24084;SDS011;12268;52.110;5.548;2022-09-16T01:54:58;5.88;;;1.75;;
24084;SDS011;12268;52.110;5.548;2022-09-16T01:57:30;6.17;;;1.73;;
24084;SDS011;12268;52.110;5.548;2022-09-16T02:00:07;3.80;;;1.95;;
24084;SDS011;12268;52.110;5.548;2022-09-16T02:02:46;2.78;;;1.30;;
24084;SDS011;12268;52.110;5.548;2022-09-16T02:05:33;4.90;;;1.40;;
24084;SDS011;12268;52.110;5.548;2022-09-16T02:08:04;4.75;;;1.80;;
24084;SDS011;12268;52.110;5.548;2022-09-16T02:10:38;3.80;;;1.55;;
24084;SDS011;12268;52.110;5.548;2022-09-16T02:13:10;6.55;;;2.25;;
24084;SDS011;12268;52.110;5.548;2022-09-16T02:15:48;4.32;;;1.67;;
24084;SDS011;12268;52.110;5.548;2022-09-16T02:18:18;7.40;;;1.67;;
24084;SDS011;12268;52.110;5.548;2022-09-16T02:20:51;4.32;;;1.80;;
24084;SDS011;12268;52.110;5.548;2022-09-16T02:23:22;5.00;;;1.60;;
24084;SDS011;12268;52.110;5.548;2022-09-16T02:25:51;5.50;;;2.10;;
24084;SDS011;12268;52.110;5.548;2022-09-16T02:28:19;6.32;;;1.90;;
24084;SDS011;12268;52.110;5.548;2022-09-16T02:30:53;4.32;;;2.13;;
24084;SDS011;12268;52.110;5.548;2022-09-16T02:33:22;4.43;;;1.52;;
24084;SDS011;12268;52.110;5.548;2022-09-16T02:35:53;4.95;;;1.60;;
24084;SDS011;12268;52.110;5.548;2022-09-16T02:38:21;10.77;;;1.95;;
24084;SDS011;12268;52.110;5.548;2022-09-16T02:40:51;4.00;;;1.40;;
24084;SDS011;12268;52.110;5.548;2022-09-16T02:43:22;6.22;;;1.58;;
24084;SDS011;12268;52.110;5.548;2022-09-16T02:48:32;7.82;;;1.67;;
24084;SDS011;12268;52.110;5.548;2022-09-16T02:51:19;4.13;;;1.73;;
24084;SDS011;12268;52.110;5.548;2022-09-16T02:56:42;4.82;;;1.58;;
24084;SDS011;12268;52.110;5.548;2022-09-16T02:59:09;3.92;;;1.77;;
24084;SDS011;12268;52.110;5.548;2022-09-16T03:01:40;5.35;;;1.60;;
24084;SDS011;12268;52.110;5.548;2022-09-16T03:04:15;7.22;;;1.40;;
24084;SDS011;12268;52.110;5.548;2022-09-16T03:06:42;4.97;;;1.40;;
24084;SDS011;12268;52.110;5.548;2022-09-16T03:09:09;6.35;;;1.80;;
24084;SDS011;12268;52.110;5.548;2022-09-16T03:17:57;3.47;;;1.60;;
24084;SDS011;12268;52.110;5.548;2022-09-16T03:28:45;5.07;;;1.52;;
24084;SDS011;12268;52.110;5.548;2022-09-16T03:31:36;10.27;;;1.70;;
24084;SDS011;12268;52.110;5.548;2022-09-16T03:36:52;6.45;;;1.58;;
24084;SDS011;12268;52.110;5.548;2022-09-16T03:39:22;3.97;;;1.67;;
24084;SDS011;12268;52.110;5.548;2022-09-16T03:41:47;5.70;;;1.80;;
24084;SDS011;12268;52.110;5.548;2022-09-16T03:44:13;5.60;;;1.88;;
24084;SDS011;12268;52.110;5.548;2022-09-16T03:46:39;6.70;;;2.03;;
24084;SDS011;12268;52.110;5.548;2022-09-16T03:49:04;6.65;;;1.48;;
24084;SDS011;12268;52.110;5.548;2022-09-16T03:51:30;8.38;;;1.80;;
24084;SDS011;12268;52.110;5.548;2022-09-16T03:53:55;3.92;;;1.60;;
24084;SDS011;12268;52.110;5.548;2022-09-16T03:56:22;8.27;;;1.60;;
24084;SDS011;12268;52.110;5.548;2022-09-16T03:58:48;4.43;;;1.70;;
24084;SDS011;12268;52.110;5.548;2022-09-16T04:01:14;4.20;;;1.70;;
24084;SDS011;12268;52.110;5.548;2022-09-16T04:03:40;2.45;;;1.30;;
24084;SDS011;12268;52.110;5.548;2022-09-16T04:06:06;5.45;;;1.60;;
24084;SDS011;12268;52.110;5.548;2022-09-16T04:08:31;6.18;;;1.58;;
24084;SDS011;12268;52.110;5.548;2022-09-16T04:11:04;3.38;;;1.73;;
24084;SDS011;12268;52.110;5.548;2022-09-16T04:13:31;6.55;;;1.67;;
24084;SDS011;12268;52.110;5.548;2022-09-16T04:15:57;3.42;;;1.77;;
24084;SDS011;12268;52.110;5.548;2022-09-16T04:18:23;4.45;;;1.42;;
24084;SDS011;12268;52.110;5.548;2022-09-16T04:20:49;4.22;;;1.52;;
24084;SDS011;12268;52.110;5.548;2022-09-16T04:23:19;4.38;;;1.60;;
24084;SDS011;12268;52.110;5.548;2022-09-16T04:25:52;4.20;;;1.60;;
24084;SDS011;12268;52.110;5.548;2022-09-16T04:28:19;9.05;;;1.73;;
24084;SDS011;12268;52.110;5.548;2022-09-16T04:30:45;4.97;;;1.83;;
24084;SDS011;12268;52.110;5.548;2022-09-16T04:33:10;3.20;;;1.45;;
24084;SDS011;12268;52.110;5.548;2022-09-16T04:35:36;5.53;;;1.55;;
24084;SDS011;12268;52.110;5.548;2022-09-16T04:38:02;3.97;;;1.52;;
24084;SDS011;12268;52.110;5.548;2022-09-16T04:40:27;6.75;;;1.70;;
24084;SDS011;12268;52.110;5.548;2022-09-16T06:54:56;5.90;;;1.70;;
24084;SDS011;12268;52.110;5.548;2022-09-16T06:57:22;9.73;;;1.50;;
24084;SDS011;12268;52.110;5.548;2022-09-16T06:59:51;4.25;;;1.23;;
24084;SDS011;12268;52.110;5.548;2022-09-16T07:02:16;2.40;;;1.08;;
24084;SDS011;12268;52.110;5.548;2022-09-16T07:04:42;4.13;;;1.45;;
24084;SDS011;12268;52.110;5.548;2022-09-16T07:07:08;5.93;;;1.40;;
24084;SDS011;12268;52.110;5.548;2022-09-16T07:09:34;3.88;;;1.63;;
24084;SDS011;12268;52.110;5.548;2022-09-16T07:11:59;5.57;;;1.60;;
24084;SDS011;12268;52.110;5.548;2022-09-16T07:14:26;7.63;;;1.30;;
24084;SDS011;12268;52.110;5.548;2022-09-16T07:16:52;2.75;;;1.38;;
24084;SDS011;12268;52.110;5.548;2022-09-16T07:19:18;4.15;;;1.35;;
24084;SDS011;12268;52.110;5.548;2022-09-16T07:21:43;5.28;;;1.40;;
24084;SDS011;12268;52.110;5.548;2022-09-16T07:24:10;5.85;;;1.30;;
24084;SDS011;12268;52.110;5.548;2022-09-16T07:26:37;8.95;;;1.17;;
24084;SDS011;12268;52.110;5.548;2022-09-16T07:29:05;4.32;;;1.50;;
24084;SDS011;12268;52.110;5.548;2022-09-16T07:31:33;6.70;;;1.42;;
24084;SDS011;12268;52.110;5.548;2022-09-16T07:34:01;7.78;;;1.65;;
24084;SDS011;12268;52.110;5.548;2022-09-16T07:36:29;7.55;;;1.65;;
24084;SDS011;12268;52.110;5.548;2022-09-16T07:38:57;3.35;;;1.38;;
24084;SDS011;12268;52.110;5.548;2022-09-16T07:41:24;4.65;;;1.63;;
24084;SDS011;12268;52.110;5.548;2022-09-16T07:43:55;7.32;;;1.52;;
24084;SDS011;12268;52.110;5.548;2022-09-16T07:46:25;5.63;;;2.10;;
24084;SDS011;12268;52.110;5.548;2022-09-16T07:48:53;5.18;;;1.23;;
24084;SDS011;12268;52.110;5.548;2022-09-16T07:51:21;4.90;;;1.10;;
24084;SDS011;12268;52.110;5.548;2022-09-16T07:53:52;4.25;;;1.20;;
24084;SDS011;12268;52.110;5.548;2022-09-16T07:56:19;3.80;;;1.33;;
24084;SDS011;12268;52.110;5.548;2022-09-16T07:58:47;6.35;;;1.40;;
24084;SDS011;12268;52.110;5.548;2022-09-16T08:01:13;6.78;;;1.33;;
24084;SDS011;12268;52.110;5.548;2022-09-16T08:03:40;5.35;;;1.08;;
24084;SDS011;12268;52.110;5.548;2022-09-16T08:06:11;3.97;;;1.27;;
24084;SDS011;12268;52.110;5.548;2022-09-16T08:08:38;2.88;;;1.30;;
24084;SDS011;12268;52.110;5.548;2022-09-16T08:11:04;9.18;;;2.47;;
24084;SDS011;12268;52.110;5.548;2022-09-16T08:13:31;4.28;;;1.30;;
24084;SDS011;12268;52.110;5.548;2022-09-16T08:16:01;3.25;;;1.20;;
24084;SDS011;12268;52.110;5.548;2022-09-16T08:18:31;4.55;;;1.15;;
24084;SDS011;12268;52.110;5.548;2022-09-16T08:20:57;6.38;;;0.82;;
24084;SDS011;12268;52.110;5.548;2022-09-16T08:23:28;3.77;;;1.20;;
24084;SDS011;12268;52.110;5.548;2022-09-16T08:25:57;5.63;;;0.80;;
24084;SDS011;12268;52.110;5.548;2022-09-16T08:28:23;3.17;;;0.90;;
24084;SDS011;12268;52.110;5.548;2022-09-16T08:30:49;3.55;;;0.90;;
24084;SDS011;12268;52.110;5.548;2022-09-16T08:33:15;3.72;;;0.88;;
24084;SDS011;12268;52.110;5.548;2022-09-16T08:35:45;1.25;;;0.70;;
24084;SDS011;12268;52.110;5.548;2022-09-16T08:38:11;6.75;;;0.70;;
24084;SDS011;12268;52.110;5.548;2022-09-16T08:40:37;2.15;;;0.98;;
24084;SDS011;12268;52.110;5.548;2022-09-16T08:46:32;3.70;;;1.17;;
24084;SDS011;12268;52.110;5.548;2022-09-16T08:51:50;5.78;;;0.95;;
24084;SDS011;12268;52.110;5.548;2022-09-16T08:54:30;2.38;;;0.88;;
24084;SDS011;12268;52.110;5.548;2022-09-16T08:57:07;3.42;;;1.00;;
24084;SDS011;12268;52.110;5.548;2022-09-16T08:59:39;3.58;;;0.70;;
24084;SDS011;12268;52.110;5.548;2022-09-16T09:04:40;1.60;;;0.77;;
24084;SDS011;12268;52.110;5.548;2022-09-16T09:07:25;2.70;;;0.90;;
24084;SDS011;12268;52.110;5.548;2022-09-16T09:10:24;2.97;;;0.80;;
24084;SDS011;12268;52.110;5.548;2022-09-16T09:15:36;1.58;;;0.80;;
24084;SDS011;12268;52.110;5.548;2022-09-16T09:23:48;3.55;;;0.98;;
24084;SDS011;12268;52.110;5.548;2022-09-16T09:26:40;3.50;;;0.88;;
24084;SDS011;12268;52.110;5.548;2022-09-16T09:37:46;4.95;;;1.40;;
24084;SDS011;12268;52.110;5.548;2022-09-16T09:40:22;5.90;;;1.00;;
24084;SDS011;12268;52.110;5.548;2022-09-16T09:45:57;5.72;;;1.05;;
24084;SDS011;12268;52.110;5.548;2022-09-16T09:51:03;4.10;;;0.88;;
24084;SDS011;12268;52.110;5.548;2022-09-16T09:53:35;2.72;;;0.85;;
24084;SDS011;12268;52.110;5.548;2022-09-16T09:59:03;6.70;;;1.27;;
24084;SDS011;12268;52.110;5.548;2022-09-16T10:01:45;2.15;;;0.65;;
24084;SDS011;12268;52.110;5.548;2022-09-16T10:04:11;2.40;;;0.70;;
24084;SDS011;12268;52.110;5.548;2022-09-16T10:06:39;4.03;;;0.93;;
24084;SDS011;12268;52.110;5.548;2022-09-16T10:09:07;3.22;;;0.70;;
24084;SDS011;12268;52.110;5.548;2022-09-16T10:12:13;2.83;;;1.00;;
24084;SDS011;12268;52.110;5.548;2022-09-16T10:14:32;3.22;;;0.80;;
24084;SDS011;12268;52.110;5.548;2022-09-16T10:17:00;2.65;;;0.60;;
24084;SDS011;12268;52.110;5.548;2022-09-16T10:19:27;2.00;;;0.70;;
24084;SDS011;12268;52.110;5.548;2022-09-16T10:22:06;1.10;;;0.68;;
24084;SDS011;12268;52.110;5.548;2022-09-16T10:24:43;2.47;;;0.80;;
24084;SDS011;12268;52.110;5.548;2022-09-16T10:27:23;3.20;;;0.93;;
24084;SDS011;12268;52.110;5.548;2022-09-16T10:32:58;1.33;;;0.70;;
24084;SDS011;12268;52.110;5.548;2022-09-16T10:35:37;4.47;;;0.70;;
24084;SDS011;12268;52.110;5.548;2022-09-16T10:40:31;1.45;;;0.60;;
24084;SDS011;12268;52.110;5.548;2022-09-16T10:43:01;2.33;;;0.80;;
24084;SDS011;12268;52.110;5.548;2022-09-16T10:47:56;0.70;;;0.68;;
24084;SDS011;12268;52.110;5.548;2022-09-16T10:50:25;5.05;;;1.20;;
24084;SDS011;12268;52.110;5.548;2022-09-16T10:52:51;1.95;;;0.68;;
24084;SDS011;12268;52.110;5.548;2022-09-16T10:57:43;2.17;;;0.60;;
24084;SDS011;12268;52.110;5.548;2022-09-16T11:08:33;1.95;;;0.90;;
24084;SDS011;12268;52.110;5.548;2022-09-16T11:11:22;4.00;;;0.68;;
24084;SDS011;12268;52.110;5.548;2022-09-16T11:30:19;5.30;;;0.77;;
24084;SDS011;12268;52.110;5.548;2022-09-16T11:32:54;1.77;;;0.80;;
24084;SDS011;12268;52.110;5.548;2022-09-16T11:38:44;3.40;;;0.90;;
24084;SDS011;12268;52.110;5.548;2022-09-16T11:41:31;2.33;;;0.70;;
24084;SDS011;12268;52.110;5.548;2022-09-16T11:50:02;4.10;;;0.80;;
24084;SDS011;12268;52.110;5.548;2022-09-16T12:04:24;2.45;;;0.80;;
24084;SDS011;12268;52.110;5.548;2022-09-16T12:07:03;2.92;;;0.85;;
24084;SDS011;12268;52.110;5.548;2022-09-16T12:12:37;3.30;;;0.90;;
24084;SDS011;12268;52.110;5.548;2022-09-16T12:15:43;4.80;;;0.93;;
24084;SDS011;12268;52.110;5.548;2022-09-16T12:18:20;2.28;;;0.70;;
24084;SDS011;12268;52.110;5.548;2022-09-16T12:23:59;3.67;;;0.90;;
24084;SDS011;12268;52.110;5.548;2022-09-16T12:29:58;4.18;;;1.15;;
24084;SDS011;12268;52.110;5.548;2022-09-16T12:32:41;5.13;;;1.20;;
24084;SDS011;12268;52.110;5.548;2022-09-16T12:35:29;5.32;;;1.08;;
24084;SDS011;12268;52.110;5.548;2022-09-16T12:38:14;4.30;;;1.10;;
24084;SDS011;12268;52.110;5.548;2022-09-16T12:43:42;4.00;;;1.02;;
24084;SDS011;12268;52.110;5.548;2022-09-16T13:00:52;7.97;;;1.20;;
24084;SDS011;12268;52.110;5.548;2022-09-16T13:03:29;4.05;;;1.00;;
24084;SDS011;12268;52.110;5.548;2022-09-16T13:06:04;8.32;;;1.00;;
24084;SDS011;12268;52.110;5.548;2022-09-16T13:08:44;2.72;;;0.88;;
24084;SDS011;12268;52.110;5.548;2022-09-16T13:11:17;4.45;;;0.90;;
24084;SDS011;12268;52.110;5.548;2022-09-16T13:13:46;3.50;;;0.90;;
24084;SDS011;12268;52.110;5.548;2022-09-16T13:16:14;3.15;;;0.80;;
24084;SDS011;12268;52.110;5.548;2022-09-16T13:19:05;8.00;;;1.08;;
24084;SDS011;12268;52.110;5.548;2022-09-16T13:21:41;3.15;;;1.00;;
24084;SDS011;12268;52.110;5.548;2022-09-16T13:26:59;2.75;;;1.15;;
24084;SDS011;12268;52.110;5.548;2022-09-16T13:32:23;5.45;;;0.88;;
24084;SDS011;12268;52.110;5.548;2022-09-16T13:37:47;7.50;;;1.15;;
24084;SDS011;12268;52.110;5.548;2022-09-16T13:40:29;6.18;;;1.40;;
24084;SDS011;12268;52.110;5.548;2022-09-16T13:45:34;9.32;;;1.08;;
24084;SDS011;12268;52.110;5.548;2022-09-16T13:48:17;3.60;;;0.90;;
24084;SDS011;12268;52.110;5.548;2022-09-16T13:50:48;3.20;;;1.10;;
24084;SDS011;12268;52.110;5.548;2022-09-16T13:53:19;3.47;;;1.10;;
24084;SDS011;12268;52.110;5.548;2022-09-16T13:55:50;9.85;;;1.88;;
24084;SDS011;12268;52.110;5.548;2022-09-16T13:58:23;5.55;;;1.02;;
24084;SDS011;12268;52.110;5.548;2022-09-16T14:01:19;6.82;;;0.93;;
24084;SDS011;12268;52.110;5.548;2022-09-16T14:04:09;3.03;;;1.05;;
24084;SDS011;12268;52.110;5.548;2022-09-16T14:06:57;3.40;;;0.70;;
24084;SDS011;12268;52.110;5.548;2022-09-16T14:09:51;5.60;;;1.02;;
24084;SDS011;12268;52.110;5.548;2022-09-16T14:15:19;3.95;;;0.98;;
24084;SDS011;12268;52.110;5.548;2022-09-16T14:17:47;2.92;;;0.90;;
24084;SDS011;12268;52.110;5.548;2022-09-16T14:20:19;4.38;;;1.20;;
24084;SDS011;12268;52.110;5.548;2022-09-16T14:22:46;1.55;;;0.75;;
24084;SDS011;12268;52.110;5.548;2022-09-16T14:25:26;5.22;;;1.25;;
24084;SDS011;12268;52.110;5.548;2022-09-16T14:28:08;4.30;;;0.98;;
24084;SDS011;12268;52.110;5.548;2022-09-16T14:30:50;3.63;;;0.85;;
24084;SDS011;12268;52.110;5.548;2022-09-16T14:33:18;2.40;;;0.88;;
24084;SDS011;12268;52.110;5.548;2022-09-16T14:41:46;7.07;;;1.30;;
24084;SDS011;12268;52.110;5.548;2022-09-16T14:46:44;5.75;;;0.82;;
24084;SDS011;12268;52.110;5.548;2022-09-16T14:49:15;4.57;;;0.88;;
24084;SDS011;12268;52.110;5.548;2022-09-16T14:51:43;8.05;;;1.00;;
24084;SDS011;12268;52.110;5.548;2022-09-16T14:54:16;5.13;;;1.10;;
24084;SDS011;12268;52.110;5.548;2022-09-16T14:56:53;4.50;;;1.00;;
24084;SDS011;12268;52.110;5.548;2022-09-16T14:59:19;2.90;;;0.82;;
24084;SDS011;12268;52.110;5.548;2022-09-16T15:01:46;9.73;;;1.02;;
24084;SDS011;12268;52.110;5.548;2022-09-16T15:04:20;7.88;;;1.13;;
24084;SDS011;12268;52.110;5.548;2022-09-16T15:06:54;5.20;;;1.13;;
24084;SDS011;12268;52.110;5.548;2022-09-16T15:12:26;7.78;;;1.40;;
24084;SDS011;12268;52.110;5.548;2022-09-16T15:14:54;3.85;;;1.00;;
24084;SDS011;12268;52.110;5.548;2022-09-16T15:17:20;7.45;;;1.20;;
24084;SDS011;12268;52.110;5.548;2022-09-16T15:20:17;4.60;;;1.00;;
24084;SDS011;12268;52.110;5.548;2022-09-16T15:22:44;6.60;;;1.40;;
24084;SDS011;12268;52.110;5.548;2022-09-16T15:25:17;6.70;;;1.38;;
24084;SDS011;12268;52.110;5.548;2022-09-16T15:27:48;12.57;;;1.33;;
24084;SDS011;12268;52.110;5.548;2022-09-16T15:30:20;8.82;;;1.55;;
24084;SDS011;12268;52.110;5.548;2022-09-16T15:32:47;11.32;;;1.42;;
24084;SDS011;12268;52.110;5.548;2022-09-16T15:37:53;6.68;;;1.17;;
24084;SDS011;12268;52.110;5.548;2022-09-16T15:45:40;9.77;;;1.38;;
24084;SDS011;12268;52.110;5.548;2022-09-16T15:48:17;9.43;;;1.20;;
24084;SDS011;12268;52.110;5.548;2022-09-16T15:50:55;10.30;;;1.70;;
24084;SDS011;12268;52.110;5.548;2022-09-16T15:58:44;7.68;;;1.25;;
24084;SDS011;12268;52.110;5.548;2022-09-16T16:03:55;8.40;;;1.10;;
24084;SDS011;12268;52.110;5.548;2022-09-16T16:11:53;5.18;;;1.30;;
24084;SDS011;12268;52.110;5.548;2022-09-16T16:14:19;5.03;;;1.00;;
24084;SDS011;12268;52.110;5.548;2022-09-16T16:16:47;6.18;;;1.30;;
24084;SDS011;12268;52.110;5.548;2022-09-16T16:19:12;6.65;;;1.35;;
24084;SDS011;12268;52.110;5.548;2022-09-16T16:21:38;6.70;;;1.40;;
24084;SDS011;12268;52.110;5.548;2022-09-16T16:24:09;8.02;;;1.13;;
24084;SDS011;12268;52.110;5.548;2022-09-16T16:26:35;4.75;;;0.80;;
24084;SDS011;12268;52.110;5.548;2022-09-16T16:29:01;8.90;;;1.25;;
24084;SDS011;12268;52.110;5.548;2022-09-16T16:31:26;7.53;;;1.60;;
24084;SDS011;12268;52.110;5.548;2022-09-16T16:33:52;5.10;;;1.27;;
24084;SDS011;12268;52.110;5.548;2022-09-16T16:36:18;4.20;;;1.48;;
24084;SDS011;12268;52.110;5.548;2022-09-16T16:38:44;4.80;;;1.33;;
24084;SDS011;12268;52.110;5.548;2022-09-16T16:41:12;3.88;;;1.23;;
24084;SDS011;12268;52.110;5.548;2022-09-16T16:43:47;9.55;;;2.08;;
24084;SDS011;12268;52.110;5.548;2022-09-16T16:46:13;7.93;;;1.67;;
24084;SDS011;12268;52.110;5.548;2022-09-16T16:48:39;5.22;;;1.20;;
24084;SDS011;12268;52.110;5.548;2022-09-16T16:51:06;8.48;;;1.65;;
24084;SDS011;12268;52.110;5.548;2022-09-16T16:53:34;10.70;;;1.48;;
24084;SDS011;12268;52.110;5.548;2022-09-16T16:56:04;6.28;;;1.60;;
24084;SDS011;12268;52.110;5.548;2022-09-16T16:58:35;7.13;;;1.63;;
24084;SDS011;12268;52.110;5.548;2022-09-16T17:01:05;6.00;;;1.48;;
24084;SDS011;12268;52.110;5.548;2022-09-16T17:03:36;11.98;;;1.75;;
24084;SDS011;12268;52.110;5.548;2022-09-16T17:06:02;6.88;;;1.48;;
24084;SDS011;12268;52.110;5.548;2022-09-16T17:08:28;7.25;;;1.23;;
24084;SDS011;12268;52.110;5.548;2022-09-16T17:11:07;8.48;;;1.58;;
24084;SDS011;12268;52.110;5.548;2022-09-16T17:13:37;6.65;;;1.75;;
24084;SDS011;12268;52.110;5.548;2022-09-16T17:16:05;7.75;;;1.58;;
24084;SDS011;12268;52.110;5.548;2022-09-16T17:18:32;8.40;;;1.60;;
24084;SDS011;12268;52.110;5.548;2022-09-16T17:21:00;15.07;;;2.30;;
24084;SDS011;12268;52.110;5.548;2022-09-16T17:23:27;4.70;;;1.88;;
24084;SDS011;12268;52.110;5.548;2022-09-16T17:25:53;8.40;;;1.38;;
24084;SDS011;12268;52.110;5.548;2022-09-16T17:28:18;10.00;;;1.80;;
24084;SDS011;12268;52.110;5.548;2022-09-16T17:30:44;10.02;;;1.50;;
24084;SDS011;12268;52.110;5.548;2022-09-16T17:33:10;9.30;;;1.65;;
24084;SDS011;12268;52.110;5.548;2022-09-16T17:35:35;12.63;;;2.45;;
24084;SDS011;12268;52.110;5.548;2022-09-16T17:38:01;12.23;;;1.55;;
24084;SDS011;12268;52.110;5.548;2022-09-16T17:40:27;9.73;;;1.75;;
24084;SDS011;12268;52.110;5.548;2022-09-16T17:42:53;11.55;;;1.65;;
24084;SDS011;12268;52.110;5.548;2022-09-16T17:45:19;12.70;;;1.65;;
24084;SDS011;12268;52.110;5.548;2022-09-16T17:47:44;8.30;;;1.50;;
24084;SDS011;12268;52.110;5.548;2022-09-16T17:50:10;7.57;;;1.33;;
24084;SDS011;12268;52.110;5.548;2022-09-16T17:52:35;11.70;;;1.52;;
24084;SDS011;12268;52.110;5.548;2022-09-16T17:55:01;8.90;;;1.63;;
24084;SDS011;12268;52.110;5.548;2022-09-16T17:57:26;11.70;;;1.80;;
24084;SDS011;12268;52.110;5.548;2022-09-16T17:59:52;11.43;;;1.70;;
24084;SDS011;12268;52.110;5.548;2022-09-16T18:02:18;11.18;;;1.52;;
24084;SDS011;12268;52.110;5.548;2022-09-16T18:04:46;7.00;;;1.42;;
24084;SDS011;12268;52.110;5.548;2022-09-16T18:07:12;9.02;;;2.22;;
24084;SDS011;12268;52.110;5.548;2022-09-16T18:09:38;10.13;;;1.80;;
24084;SDS011;12268;52.110;5.548;2022-09-16T18:12:04;12.45;;;1.80;;
24084;SDS011;12268;52.110;5.548;2022-09-16T18:14:31;13.77;;;1.40;;
24084;SDS011;12268;52.110;5.548;2022-09-16T18:16:57;10.60;;;1.63;;
24084;SDS011;12268;52.110;5.548;2022-09-16T18:19:23;12.75;;;1.85;;
24084;SDS011;12268;52.110;5.548;2022-09-16T18:21:49;7.10;;;1.38;;
24084;SDS011;12268;52.110;5.548;2022-09-16T18:24:15;8.68;;;1.90;;
24084;SDS011;12268;52.110;5.548;2022-09-16T18:26:41;7.88;;;1.70;;
24084;SDS011;12268;52.110;5.548;2022-09-16T18:29:07;7.93;;;1.60;;
24084;SDS011;12268;52.110;5.548;2022-09-16T18:31:34;7.30;;;1.90;;
24084;SDS011;12268;52.110;5.548;2022-09-16T18:34:00;4.75;;;1.38;;
24084;SDS011;12268;52.110;5.548;2022-09-16T18:36:25;10.23;;;2.28;;
24084;SDS011;12268;52.110;5.548;2022-09-16T18:38:54;11.60;;;1.75;;
24084;SDS011;12268;52.110;5.548;2022-09-16T18:41:22;12.18;;;1.75;;
24084;SDS011;12268;52.110;5.548;2022-09-16T18:43:53;9.02;;;1.70;;
24084;SDS011;12268;52.110;5.548;2022-09-16T18:46:24;7.45;;;1.63;;
24084;SDS011;12268;52.110;5.548;2022-09-16T18:48:52;7.18;;;1.52;;
24084;SDS011;12268;52.110;5.548;2022-09-16T18:53:44;11.77;;;1.70;;
24084;SDS011;12268;52.110;5.548;2022-09-16T18:56:11;8.73;;;1.42;;
24084;SDS011;12268;52.110;5.548;2022-09-16T18:58:38;8.55;;;1.75;;
24084;SDS011;12268;52.110;5.548;2022-09-16T19:01:26;8.73;;;1.92;;
24084;SDS011;12268;52.110;5.548;2022-09-16T19:03:52;12.10;;;2.03;;
24084;SDS011;12268;52.110;5.548;2022-09-16T19:06:20;6.10;;;1.50;;
24084;SDS011;12268;52.110;5.548;2022-09-16T19:08:46;10.98;;;1.48;;
24084;SDS011;12268;52.110;5.548;2022-09-16T19:11:12;9.57;;;1.70;;
24084;SDS011;12268;52.110;5.548;2022-09-16T19:13:39;5.43;;;1.77;;
24084;SDS011;12268;52.110;5.548;2022-09-16T19:16:06;7.60;;;1.92;;
24084;SDS011;12268;52.110;5.548;2022-09-16T19:18:32;5.88;;;1.65;;
24084;SDS011;12268;52.110;5.548;2022-09-16T19:20:58;9.93;;;1.73;;
24084;SDS011;12268;52.110;5.548;2022-09-16T19:23:23;9.93;;;1.48;;
24084;SDS011;12268;52.110;5.548;2022-09-16T19:25:50;7.28;;;1.63;;
24084;SDS011;12268;52.110;5.548;2022-09-16T19:28:15;8.43;;;1.65;;
24084;SDS011;12268;52.110;5.548;2022-09-16T19:30:41;9.25;;;1.50;;
24084;SDS011;12268;52.110;5.548;2022-09-16T19:33:07;4.60;;;1.40;;
24084;SDS011;12268;52.110;5.548;2022-09-16T19:35:32;7.65;;;1.50;;
24084;SDS011;12268;52.110;5.548;2022-09-16T19:37:58;12.18;;;1.88;;
24084;SDS011;12268;52.110;5.548;2022-09-16T19:40:25;10.52;;;1.80;;
24084;SDS011;12268;52.110;5.548;2022-09-16T19:42:51;7.40;;;1.60;;
24084;SDS011;12268;52.110;5.548;2022-09-16T19:45:17;8.38;;;1.60;;
24084;SDS011;12268;52.110;5.548;2022-09-16T19:47:44;7.88;;;1.40;;
24084;SDS011;12268;52.110;5.548;2022-09-16T19:50:09;7.28;;;1.52;;
24084;SDS011;12268;52.110;5.548;2022-09-16T19:52:35;8.07;;;1.98;;
24084;SDS011;12268;52.110;5.548;2022-09-16T19:55:02;8.50;;;1.88;;
24084;SDS011;12268;52.110;5.548;2022-09-16T19:57:29;5.35;;;1.23;;
24084;SDS011;12268;52.110;5.548;2022-09-16T19:59:55;9.82;;;1.58;;
24084;SDS011;12268;52.110;5.548;2022-09-16T20:02:20;10.80;;;1.45;;
24084;SDS011;12268;52.110;5.548;2022-09-16T20:04:46;9.32;;;1.42;;
24084;SDS011;12268;52.110;5.548;2022-09-16T20:07:11;6.25;;;1.58;;
24084;SDS011;12268;52.110;5.548;2022-09-16T20:09:41;11.75;;;1.77;;
24084;SDS011;12268;52.110;5.548;2022-09-16T20:12:07;4.80;;;1.30;;
24084;SDS011;12268;52.110;5.548;2022-09-16T20:14:33;12.02;;;1.50;;
24084;SDS011;12268;52.110;5.548;2022-09-16T20:17:00;6.40;;;1.20;;
24084;SDS011;12268;52.110;5.548;2022-09-16T20:19:26;9.00;;;1.60;;
24084;SDS011;12268;52.110;5.548;2022-09-16T20:21:51;5.63;;;1.10;;
24084;SDS011;12268;52.110;5.548;2022-09-16T20:24:18;5.20;;;1.00;;
24084;SDS011;12268;52.110;5.548;2022-09-16T20:26:45;6.53;;;1.30;;
24084;SDS011;12268;52.110;5.548;2022-09-16T20:29:15;6.97;;;1.30;;
24084;SDS011;12268;52.110;5.548;2022-09-16T20:31:41;3.63;;;1.10;;
24084;SDS011;12268;52.110;5.548;2022-09-16T20:34:08;6.43;;;1.35;;
24084;SDS011;12268;52.110;5.548;2022-09-16T20:36:35;8.30;;;1.15;;
24084;SDS011;12268;52.110;5.548;2022-09-16T20:39:02;3.72;;;1.10;;
24084;SDS011;12268;52.110;5.548;2022-09-16T20:41:29;6.22;;;1.35;;
24084;SDS011;12268;52.110;5.548;2022-09-16T20:43:56;4.88;;;0.90;;
24084;SDS011;12268;52.110;5.548;2022-09-16T20:48:50;6.90;;;1.45;;